createdAt,value
2023-01-03T00:02:49.958Z,11.30
2023-01-03T00:13:14.307Z,11.10
2023-01-03T00:23:38.689Z,12.90
2023-01-03T00:34:03.021Z,14.50
2023-01-03T00:44:27.283Z,13.90
2023-01-03T00:54:51.459Z,13.70
2023-01-03T01:05:15.880Z,13.50
2023-01-03T01:15:40.319Z,11.80
2023-01-03T01:26:06.093Z,11.40
2023-01-03T01:36:33.277Z,9.70
2023-01-03T01:46:57.591Z,9.30
2023-01-03T01:57:24.416Z,9.30
2023-01-03T02:07:50.483Z,9.80
2023-01-03T02:18:42.069Z,10.70
2023-01-03T02:29:35.627Z,9.90
2023-01-03T02:40:08.423Z,9.70
2023-01-03T02:50:42.849Z,9.40
2023-01-03T03:01:10.186Z,9.20
2023-01-03T03:11:56.805Z,7.90
2023-01-03T03:22:47.778Z,8.90
2023-01-03T03:33:15.318Z,9.20
2023-01-03T03:44:07.055Z,10.00
2023-01-03T03:54:35.685Z,9.30
2023-01-03T04:05:05.342Z,8.80
2023-01-03T04:15:29.791Z,10.00
2023-01-03T04:25:54.119Z,8.70
2023-01-03T04:36:18.320Z,10.40
2023-01-03T04:46:45.163Z,9.80
2023-01-03T04:57:13.337Z,9.70
2023-01-03T05:07:37.527Z,9.20
2023-01-03T05:18:01.989Z,13.80
2023-01-03T05:28:26.247Z,10.70
2023-01-03T05:38:50.435Z,10.40
2023-01-03T05:49:14.692Z,9.80
2023-01-03T05:59:38.904Z,9.80
2023-01-03T06:10:03.218Z,12.90
2023-01-03T06:20:27.959Z,9.30
2023-01-03T06:30:52.629Z,13.40
2023-01-03T06:41:17.398Z,12.10
2023-01-03T06:52:00.237Z,13.10
2023-01-03T07:02:24.774Z,11.30
2023-01-03T07:13:07.560Z,12.50
2023-01-03T07:23:31.748Z,12.60
2023-01-03T07:33:56.947Z,15.20
2023-01-03T07:44:21.304Z,15.30
2023-01-03T07:54:45.658Z,15.90
2023-01-03T08:05:10.726Z,16.70
2023-01-03T08:15:35.033Z,23.20
2023-01-03T08:26:03.000Z,25.50
2023-01-03T08:36:31.934Z,23.00
2023-01-03T08:46:59.032Z,18.40
2023-01-03T08:57:23.242Z,16.70
2023-01-03T09:07:47.431Z,16.70
2023-01-03T09:18:12.170Z,16.70
2023-01-03T09:28:36.447Z,38.30
2023-01-03T09:39:00.655Z,15.40
2023-01-03T09:49:25.165Z,13.20
2023-01-03T10:00:07.896Z,11.80
2023-01-03T10:10:41.305Z,11.60
2023-01-03T10:21:08.964Z,9.40
2023-01-03T10:31:48.767Z,9.50
2023-01-03T10:42:18.229Z,8.70
2023-01-03T10:52:42.519Z,10.40
2023-01-03T11:03:19.154Z,10.30
2023-01-03T11:13:43.468Z,8.20
2023-01-03T11:24:23.209Z,6.60
2023-01-03T11:35:25.963Z,7.40
2023-01-03T11:46:07.447Z,5.50
2023-01-03T11:56:34.759Z,5.70
2023-01-03T12:18:02.318Z,5.90
2023-01-03T12:28:33.122Z,13.00
2023-01-03T12:39:06.469Z,17.50
2023-01-03T12:49:35.300Z,14.30
2023-01-03T13:00:21.243Z,13.50
2023-01-03T13:10:50.343Z,13.50
2023-01-03T13:21:49.679Z,8.70
2023-01-03T13:32:25.358Z,5.60
2023-01-03T13:43:00.616Z,4.30
2023-01-03T13:53:36.441Z,4.90
2023-01-03T14:04:22.599Z,4.40
2023-01-03T14:14:53.002Z,3.40
2023-01-03T14:25:32.922Z,5.80
2023-01-03T14:36:04.116Z,7.60
2023-01-03T14:46:30.623Z,5.90
2023-01-03T14:56:55.757Z,6.10
2023-01-03T15:07:33.155Z,5.20
2023-01-03T15:18:02.144Z,7.50
2023-01-03T15:28:28.979Z,7.10
2023-01-03T15:38:53.327Z,5.90
2023-01-03T15:49:21.457Z,6.60
2023-01-03T15:59:47.199Z,9.80
2023-01-03T16:10:12.464Z,7.70
2023-01-03T16:20:36.829Z,7.60
2023-01-03T16:31:04.359Z,6.00
2023-01-03T16:41:28.730Z,6.20
2023-01-03T16:51:57.542Z,6.20
2023-01-03T17:02:22.464Z,6.80
2023-01-03T17:12:47.038Z,6.90
2023-01-03T17:23:11.733Z,6.70
2023-01-03T17:33:35.992Z,9.30
2023-01-03T17:44:00.207Z,19.40
2023-01-03T17:54:27.651Z,19.20
2023-01-03T18:15:36.770Z,13.30
2023-01-03T18:26:03.104Z,13.60
2023-01-03T18:36:29.190Z,16.90
2023-01-03T18:46:53.609Z,23.70
2023-01-03T18:57:18.283Z,31.10
2023-01-03T19:07:43.629Z,41.50
2023-01-03T19:18:10.553Z,39.70
2023-01-03T19:28:35.087Z,36.30
2023-01-03T19:38:59.387Z,47.10
2023-01-03T19:49:23.929Z,48.30
2023-01-03T19:59:51.555Z,73.80
2023-01-03T20:10:20.948Z,56.40
2023-01-03T20:20:45.507Z,60.20
2023-01-03T20:31:11.275Z,42.30
2023-01-03T20:41:37.467Z,84.00
2023-01-03T20:52:01.756Z,56.80
2023-01-03T21:02:26.159Z,53.00
2023-01-03T21:12:50.946Z,65.10
2023-01-03T21:23:17.741Z,48.30
2023-01-03T21:33:41.944Z,54.20
2023-01-03T21:44:07.107Z,38.50
2023-01-03T21:54:31.539Z,41.60
2023-01-03T22:04:55.858Z,27.30
2023-01-03T22:15:20.669Z,38.10
2023-01-03T22:25:44.887Z,56.10
2023-01-03T22:36:10.503Z,56.90
2023-01-03T22:46:34.976Z,58.20
2023-01-03T22:56:59.465Z,55.80
2023-01-03T23:07:23.682Z,56.70
2023-01-03T23:17:57.207Z,50.20
2023-01-03T23:28:22.387Z,60.30
2023-01-03T23:38:47.139Z,51.30
2023-01-03T23:49:12.474Z,48.40
2023-01-03T23:59:36.713Z,49.00
